Time;durP1;ratioP1;P1;durP2;ratioP2;P2;SDS_P1;SDS_P2;PMS_P1;PMS_P2;Temp;Humidity;BMP_temperature;BMP_pressure;BME280_temperature;BME280_humidity;BME280_pressure;Samples;Min_cycle;Max_cycle;Signal;HPM_P1;HPM_P2
2022/10/28 00:00:19;;;;;;;;;;;;;;;13.67;80.52;102032.91;5057494;28;19921;-57
2022/10/28 00:02:45;;;;;;;;;;;;;;;13.66;80.58;102039.13;5061978;28;19921;-57
2022/10/28 00:05:10;;;;;;;;;;;;;;;13.65;80.44;102034.75;5058627;28;19928;-57
2022/10/28 00:07:35;;;;;;;;;;;;;;;13.63;80.65;102031.31;5067430;28;20020;-56
2022/10/28 00:10:00;;;;;;;;;;;;;;;13.62;80.74;102032.25;5066724;28;20325;-57
2022/10/28 00:12:26;;;;;;;;;;;;;;;13.62;80.74;102026.97;5068800;28;19931;-56
2022/10/28 00:14:51;;;;;;;;;;;;;;;13.63;80.66;102015.47;5064173;28;19931;-57
2022/10/28 00:17:16;;;;;;;;;;;;;;;13.64;80.74;102017.19;5069500;28;19916;-56
2022/10/28 00:19:42;;;;;;;;;;;;;;;13.65;80.46;102007.44;5069094;28;19921;-56
2022/10/28 00:22:07;;;;;;;;;;;;;;;13.67;80.40;102017.03;5060553;28;19931;-56
2022/10/28 00:24:32;;;;;;;;;;;;;;;13.69;80.45;102014.28;5059084;28;19935;-57
2022/10/28 00:26:58;;;;;;;;;;;;;;;13.70;80.29;102018.66;5048649;28;19979;-56
2022/10/28 00:29:23;;;;;;;;;;;;;;;13.70;80.15;102016.84;5061100;28;19924;-56
2022/10/28 00:31:49;;;;;;;;;;;;;;;13.70;80.11;102008.91;5060779;28;19924;-57
2022/10/28 00:34:18;;;;;;;;;;;;;;;13.71;80.01;102013.28;5058404;28;20010;-57
2022/10/28 00:36:44;;;;;;;;;;;;;;;13.74;80.02;102014.94;5060345;28;19924;-56
2022/10/28 00:39:11;;;;;;;;;;;;;;;13.74;80.13;102012.28;5062772;28;19917;-57
2022/10/28 00:41:37;;;;;;;;;;;;;;;13.76;80.21;102014.84;5066696;28;19974;-56
2022/10/28 00:44:23;;;;;;;;;;;;;;;13.78;80.23;102018.25;5067143;28;19970;-56
2022/10/28 00:46:50;;;;;;;;;;;;;;;13.80;80.11;102011.94;5044282;28;19920;-57
2022/10/28 00:49:24;;;;;;;;;;;;;;;13.82;80.22;102007.44;5065029;28;19939;-56
2022/10/28 00:51:52;;;;;;;;;;;;;;;13.84;80.17;102012.66;5062392;28;20011;-56
2022/10/28 00:54:18;;;;;;;;;;;;;;;13.85;80.15;102009.06;5057246;28;19932;-57
2022/10/28 00:56:45;;;;;;;;;;;;;;;13.83;79.99;101997.72;5065581;28;20347;-56
2022/10/28 00:59:15;;;;;;;;;;;;;;;13.82;80.05;101993.38;5064804;28;19916;-56
2022/10/28 01:01:40;;;;;;;;;;;;;;;13.82;79.87;101996.84;5060908;28;19924;-55
2022/10/28 01:04:07;;;;;;;;;;;;;;;13.82;79.87;101996.00;5055090;28;19947;-57
2022/10/28 01:06:32;;;;;;;;;;;;;;;13.81;79.84;101991.66;5063341;28;19917;-57
2022/10/28 01:08:57;;;;;;;;;;;;;;;13.81;79.89;101991.66;5063992;28;19931;-56
2022/10/28 01:11:38;;;;;;;;;;;;;;;13.79;79.86;101989.06;5085083;22;19932;-53
2022/10/28 01:14:12;;;;;;;;;;;;;;;13.80;79.86;101992.59;5062769;28;19927;-54
2022/10/28 01:16:56;;;;;;;;;;;;;;;13.80;79.94;101989.94;5065236;28;20016;-54
2022/10/28 01:19:24;;;;;;;;;;;;;;;13.80;79.82;101984.66;5069794;28;19912;-53
2022/10/28 01:22:14;;;;;;;;;;;;;;;13.81;79.88;101981.91;5056436;28;19917;-52
2022/10/28 01:24:53;;;;;;;;;;;;;;;13.81;79.89;101975.78;5066115;28;19913;-52
2022/10/28 01:27:31;;;;;;;;;;;;;;;13.82;79.88;101966.91;5068067;28;19923;-52
2022/10/28 01:30:13;;;;;;;;;;;;;;;13.79;79.83;101967.06;5062764;28;19921;-53
2022/10/28 01:32:45;;;;;;;;;;;;;;;13.79;79.90;101973.19;5063618;28;20392;-53
2022/10/28 01:35:15;;;;;;;;;;;;;;;13.79;79.96;101982.94;5059194;28;20487;-53
2022/10/28 01:37:49;;;;;;;;;;;;;;;13.80;79.85;101979.34;5067174;28;20007;-54
2022/10/28 01:40:21;;;;;;;;;;;;;;;13.79;79.75;101977.66;5056759;28;19922;-55
2022/10/28 01:42:52;;;;;;;;;;;;;;;13.78;79.74;101975.94;5062982;28;19938;-53
2022/10/28 01:45:20;;;;;;;;;;;;;;;13.78;79.76;101978.59;5062353;28;20456;-54
2022/10/28 01:47:54;;;;;;;;;;;;;;;13.76;79.69;101968.09;5067415;28;19916;-55
2022/10/28 01:50:24;;;;;;;;;;;;;;;13.73;79.57;101957.66;5057743;28;19922;-53
2022/10/28 01:52:52;;;;;;;;;;;;;;;13.71;79.64;101960.38;5063832;28;19947;-55
2022/10/28 01:55:21;;;;;;;;;;;;;;;13.68;79.64;101960.56;5064408;28;19954;-54
2022/10/28 01:57:48;;;;;;;;;;;;;;;13.65;79.51;101963.34;5060395;28;19927;-53
2022/10/28 02:00:14;;;;;;;;;;;;;;;13.62;79.57;101960.84;5058050;28;20377;-52
2022/10/28 02:02:39;;;;;;;;;;;;;;;13.60;79.54;101956.59;5062461;28;19928;-52
2022/10/28 02:05:25;;;;;;;;;;;;;;;13.58;79.68;101954.00;5060811;28;20352;-53
2022/10/28 02:07:53;;;;;;;;;;;;;;;13.55;79.51;101944.44;5066654;28;19916;-53
2022/10/28 02:10:21;;;;;;;;;;;;;;;13.53;79.63;101940.19;5067442;28;19938;-53
2022/10/28 02:12:50;;;;;;;;;;;;;;;13.50;79.57;101946.47;5061959;28;19942;-53
2022/10/28 02:15:26;;;;;;;;;;;;;;;13.48;79.56;101942.19;5063480;28;20381;-52
2022/10/28 02:17:56;;;;;;;;;;;;;;;13.42;79.75;101938.06;5060519;28;20011;-52
2022/10/28 02:20:22;;;;;;;;;;;;;;;13.39;79.62;101943.47;5056662;28;19927;-52
2022/10/28 02:22:53;;;;;;;;;;;;;;;13.35;79.71;101937.50;5059744;28;19917;-55
2022/10/28 02:25:19;;;;;;;;;;;;;;;13.32;79.76;101939.41;5057076;28;19927;-53
2022/10/28 02:27:53;;;;;;;;;;;;;;;13.31;79.85;101937.75;5052525;28;19924;-54
2022/10/28 02:30:24;;;;;;;;;;;;;;;13.29;79.73;101937.78;5057791;28;19928;-53
2022/10/28 02:32:51;;;;;;;;;;;;;;;13.29;79.59;101929.88;5061194;28;20438;-52
2022/10/28 02:35:19;;;;;;;;;;;;;;;13.25;79.48;101933.59;5057313;28;19928;-55
2022/10/28 02:37:47;;;;;;;;;;;;;;;13.21;79.52;101924.97;5062954;28;19971;-52
2022/10/28 02:40:15;;;;;;;;;;;;;;;13.19;79.54;101929.47;5064882;28;19916;-51
2022/10/28 02:42:45;;;;;;;;;;;;;;;13.17;79.43;101933.13;5064129;28;20404;-52
2022/10/28 02:45:12;;;;;;;;;;;;;;;13.15;79.48;101935.00;5062080;28;20400;-54
2022/10/28 02:47:39;;;;;;;;;;;;;;;13.10;79.49;101930.78;5058434;28;19924;-55
2022/10/28 02:50:08;;;;;;;;;;;;;;;13.10;79.52;101938.72;5061730;28;21081;-53
2022/10/28 02:52:34;;;;;;;;;;;;;;;13.07;79.48;101927.44;5065076;28;19916;-52
2022/10/28 02:55:03;;;;;;;;;;;;;;;13.05;79.60;101929.28;5061695;28;20369;-54
2022/10/28 02:57:34;;;;;;;;;;;;;;;13.05;79.51;101932.81;5063901;28;19925;-52
2022/10/28 03:00:01;;;;;;;;;;;;;;;13.01;79.46;101928.59;5063479;28;20046;-54
2022/10/28 03:02:27;;;;;;;;;;;;;;;13.00;79.56;101932.16;5057531;28;19921;-54
2022/10/28 03:04:52;;;;;;;;;;;;;;;12.96;79.47;101930.59;5059828;28;19927;-52
2022/10/28 03:07:17;;;;;;;;;;;;;;;12.94;79.58;101932.47;5063927;28;19917;-52
2022/10/28 03:09:43;;;;;;;;;;;;;;;12.92;79.40;101929.06;5063645;28;19927;-53
2022/10/28 03:12:08;;;;;;;;;;;;;;;12.89;79.52;101935.34;5065624;28;20299;-50
2022/10/28 03:14:33;;;;;;;;;;;;;;;12.88;79.44;101936.25;5066967;28;19978;-52
2022/10/28 03:16:59;;;;;;;;;;;;;;;12.90;79.34;101933.56;5063772;28;19970;-55
2022/10/28 03:19:24;;;;;;;;;;;;;;;12.89;79.44;101919.47;5064508;28;20415;-50
2022/10/28 03:21:49;;;;;;;;;;;;;;;12.91;79.46;101927.34;5066289;28;20013;-51
2022/10/28 03:24:14;;;;;;;;;;;;;;;12.91;79.60;101943.19;5067163;28;19925;-50
2022/10/28 03:26:40;;;;;;;;;;;;;;;12.88;79.50;101946.81;5057844;28;20389;-53
2022/10/28 03:29:05;;;;;;;;;;;;;;;12.87;79.71;101936.34;5062558;28;20009;-52
2022/10/28 03:31:30;;;;;;;;;;;;;;;12.87;79.68;101942.47;5061420;28;19944;-51
2022/10/28 03:33:56;;;;;;;;;;;;;;;12.87;79.43;101946.91;5059980;28;20393;-53
2022/10/28 03:36:21;;;;;;;;;;;;;;;12.87;79.63;101942.47;5062310;28;20007;-51
2022/10/28 03:38:46;;;;;;;;;;;;;;;12.87;79.84;101939.00;5065031;28;20282;-50
2022/10/28 03:41:12;;;;;;;;;;;;;;;12.86;79.87;101935.47;5064367;28;20370;-50
2022/10/28 03:43:37;;;;;;;;;;;;;;;12.86;79.76;101934.63;5066057;28;19947;-50
2022/10/28 03:46:02;;;;;;;;;;;;;;;12.85;79.84;101939.06;5065471;28;20289;-54
2022/10/28 03:48:28;;;;;;;;;;;;;;;12.84;79.95;101939.13;5061921;28;20392;-53
2022/10/28 03:50:54;;;;;;;;;;;;;;;12.83;79.85;101940.94;5064143;28;20308;-51
2022/10/28 03:53:19;;;;;;;;;;;;;;;12.83;79.86;101934.78;5064716;28;19995;-51
2022/10/28 03:55:54;;;;;;;;;;;;;;;12.84;79.78;101941.78;5065702;28;19928;-51
2022/10/28 03:58:20;;;;;;;;;;;;;;;12.84;79.68;101941.78;5061638;28;19916;-51
2022/10/28 04:00:46;;;;;;;;;;;;;;;12.84;79.61;101932.06;5069970;28;19931;-50
2022/10/28 04:03:11;;;;;;;;;;;;;;;12.86;79.65;101929.34;5070115;28;19916;-51
2022/10/28 04:05:37;;;;;;;;;;;;;;;12.84;79.77;101926.78;5067435;28;19920;-51
2022/10/28 04:08:02;;;;;;;;;;;;;;;12.84;79.78;101926.78;5066606;28;19927;-51
2022/10/28 04:10:27;;;;;;;;;;;;;;;12.84;79.80;101915.34;5069212;28;20004;-51
2022/10/28 04:12:57;;;;;;;;;;;;;;;12.84;79.66;101920.63;5062765;28;20062;-51
2022/10/28 04:15:23;;;;;;;;;;;;;;;12.84;79.72;101915.34;5063118;28;20369;-53
2022/10/28 04:17:48;;;;;;;;;;;;;;;12.82;79.74;101915.44;5065810;28;19931;-54
2022/10/28 04:20:13;;;;;;;;;;;;;;;12.80;79.82;101920.78;5069635;28;19935;-52
2022/10/28 04:22:39;;;;;;;;;;;;;;;12.79;79.67;101912.94;5066844;28;19931;-52
2022/10/28 04:25:04;;;;;;;;;;;;;;;12.75;79.80;101922.81;5066541;28;20156;-51
2022/10/28 04:27:29;;;;;;;;;;;;;;;12.72;79.71;101915.03;5068598;28;19920;-52
2022/10/28 04:29:55;;;;;;;;;;;;;;;12.69;79.71;101911.69;5063016;28;20050;-52
2022/10/28 04:32:20;;;;;;;;;;;;;;;12.64;79.61;101910.13;5069386;28;19928;-52
2022/10/28 04:34:45;;;;;;;;;;;;;;;12.62;79.58;101913.75;5066168;28;19943;-51
2022/10/28 04:37:11;;;;;;;;;;;;;;;12.58;79.48;101896.34;5069436;28;19921;-52
2022/10/28 04:39:36;;;;;;;;;;;;;;;12.56;79.60;101903.47;5065090;28;20009;-51
2022/10/28 04:42:01;;;;;;;;;;;;;;;12.55;79.61;101902.66;5065343;28;19944;-52
2022/10/28 04:44:26;;;;;;;;;;;;;;;12.55;79.48;101913.19;5061250;28;19928;-51
2022/10/28 04:46:54;;;;;;;;;;;;;;;12.54;79.37;101916.78;5060236;28;19935;-52
2022/10/28 04:49:19;;;;;;;;;;;;;;;12.54;79.45;101907.97;5067491;28;20353;-52
2022/10/28 04:51:44;;;;;;;;;;;;;;;12.55;79.50;101899.13;5062735;28;19935;-51
2022/10/28 04:54:10;;;;;;;;;;;;;;;12.55;79.64;101901.78;5073552;28;20345;-51
2022/10/28 04:56:35;;;;;;;;;;;;;;;12.54;79.59;101910.63;5064769;28;19924;-54
2022/10/28 04:59:00;;;;;;;;;;;;;;;12.52;79.62;101910.69;5059030;28;19921;-54
2022/10/28 05:01:26;;;;;;;;;;;;;;;12.49;79.93;101898.47;5067478;28;20015;-52
2022/10/28 05:03:51;;;;;;;;;;;;;;;12.48;79.87;101906.50;5068452;28;19917;-53
2022/10/28 05:06:16;;;;;;;;;;;;;;;12.48;79.79;101898.56;5061957;28;19948;-52
2022/10/28 05:08:42;;;;;;;;;;;;;;;12.47;79.69;101892.44;5063040;28;19924;-54
2022/10/28 05:11:07;;;;;;;;;;;;;;;12.48;79.90;101893.28;5063550;28;19947;-55
2022/10/28 05:13:33;;;;;;;;;;;;;;;12.46;79.85;101890.72;5064896;28;19923;-52
2022/10/28 05:15:58;;;;;;;;;;;;;;;12.47;79.76;101891.56;5060349;28;19920;-51
2022/10/28 05:18:23;;;;;;;;;;;;;;;12.46;79.69;101889.84;5064035;28;19920;-54
2022/10/28 05:20:53;;;;;;;;;;;;;;;12.45;79.88;101882.88;5062338;28;20447;-52
2022/10/28 05:23:18;;;;;;;;;;;;;;;12.45;79.69;101877.59;5064464;28;19955;-53
2022/10/28 05:25:44;;;;;;;;;;;;;;;12.45;79.77;101881.09;5069329;28;20459;-51
2022/10/28 05:28:09;;;;;;;;;;;;;;;12.45;79.69;101877.59;5067228;28;20047;-50
2022/10/28 05:30:36;;;;;;;;;;;;;;;12.45;79.73;101873.19;5060662;28;19929;-50
2022/10/28 05:33:02;;;;;;;;;;;;;;;12.45;79.98;101864.38;5060206;28;19933;-56
2022/10/28 05:35:28;;;;;;;;;;;;;;;12.44;79.83;101855.63;5059566;28;19970;-51
2022/10/28 05:37:53;;;;;;;;;;;;;;;12.43;80.03;101853.91;5055475;28;20480;-52
2022/10/28 05:40:18;;;;;;;;;;;;;;;12.41;79.93;101850.50;5046419;28;20007;-58
2022/10/28 05:42:44;;;;;;;;;;;;;;;12.41;79.91;101850.50;5054537;28;19924;-53
2022/10/28 05:45:09;;;;;;;;;;;;;;;12.40;79.88;101842.66;5056690;28;20440;-52
2022/10/28 05:47:35;;;;;;;;;;;;;;;12.40;80.00;101843.50;5048436;28;19916;-52
2022/10/28 05:50:00;;;;;;;;;;;;;;;12.40;79.89;101848.78;5053683;28;19928;-51
2022/10/28 05:52:27;;;;;;;;;;;;;;;12.42;80.35;101841.66;5057764;28;21858;-53
2022/10/28 05:54:53;;;;;;;;;;;;;;;12.47;80.46;101844.94;5057319;28;19928;-51
2022/10/28 05:57:18;;;;;;;;;;;;;;;12.50;80.47;101850.03;5058420;28;19935;-52
2022/10/28 05:59:43;;;;;;;;;;;;;;;12.56;80.32;101863.88;5059509;28;19932;-50
2022/10/28 06:02:15;;;;;;;;;;;;;;;12.59;80.56;101854.03;5051975;28;19929;-51
2022/10/28 06:04:41;;;;;;;;;;;;;;;12.65;80.52;101858.13;5051051;28;19920;-55
2022/10/28 06:07:06;;;;;;;;;;;;;;;12.68;80.57;101849.25;5058149;28;19935;-59
2022/10/28 06:09:31;;;;;;;;;;;;;;;12.71;80.57;101852.56;5055311;28;19932;-50
2022/10/28 06:11:56;;;;;;;;;;;;;;;12.73;80.78;101858.63;5057345;28;19924;-51
2022/10/28 06:14:22;;;;;;;;;;;;;;;12.76;80.54;101850.56;5052928;28;20011;-52
2022/10/28 06:16:47;;;;;;;;;;;;;;;12.79;80.75;101853.03;5056929;28;19927;-50
2022/10/28 06:19:12;;;;;;;;;;;;;;;12.84;80.80;101849.31;5057463;28;19920;-52
2022/10/28 06:21:38;;;;;;;;;;;;;;;12.87;80.71;101839.44;5055928;28;19928;-51
2022/10/28 06:24:03;;;;;;;;;;;;;;;12.92;80.67;101855.94;5055222;28;19966;-52
2022/10/28 06:26:29;;;;;;;;;;;;;;;12.99;80.63;101860.94;5052886;28;20006;-55
2022/10/28 06:28:54;;;;;;;;;;;;;;;13.03;80.45;101868.63;5054103;28;19939;-51
2022/10/28 06:31:19;;;;;;;;;;;;;;;13.07;80.42;101864.91;5055687;28;19924;-51
2022/10/28 06:33:45;;;;;;;;;;;;;;;13.13;80.52;101861.09;5052743;28;19929;-51
2022/10/28 06:36:10;;;;;;;;;;;;;;;13.18;80.49;101871.41;5058568;28;19920;-50
2022/10/28 06:38:35;;;;;;;;;;;;;;;13.22;80.42;101873.81;5057314;28;20393;-53
2022/10/28 06:41:01;;;;;;;;;;;;;;;13.26;80.33;101875.38;5057145;28;20392;-55
2022/10/28 06:43:26;;;;;;;;;;;;;;;13.32;80.20;101882.13;5059597;28;20006;-54
2022/10/28 06:45:56;;;;;;;;;;;;;;;13.36;80.15;101880.19;5057945;28;20015;-53
2022/10/28 06:48:21;;;;;;;;;;;;;;;13.41;80.21;101875.56;5059952;28;20566;-53
2022/10/28 06:50:47;;;;;;;;;;;;;;;13.46;80.04;101870.88;5057775;28;19913;-50
2022/10/28 06:53:12;;;;;;;;;;;;;;;13.52;80.10;101867.91;5056523;28;19936;-55
2022/10/28 06:55:37;;;;;;;;;;;;;;;13.57;79.86;101857.09;5054119;28;19924;-52
2022/10/28 06:58:03;;;;;;;;;;;;;;;13.62;80.12;101855.06;5063422;28;20313;-52
2022/10/28 07:00:29;;;;;;;;;;;;;;;13.68;80.10;101844.19;5067749;28;19924;-52
2022/10/28 07:02:55;;;;;;;;;;;;;;;13.75;80.15;101843.81;5063331;28;20359;-53
2022/10/28 07:05:21;;;;;;;;;;;;;;;13.80;80.15;101836.50;5057468;28;19917;-54
2022/10/28 07:07:46;;;;;;;;;;;;;;;13.83;80.01;101818.66;5061329;28;19920;-53
2022/10/28 07:10:11;;;;;;;;;;;;;;;13.87;79.99;101800.81;5064545;28;19916;-54
2022/10/28 07:12:37;;;;;;;;;;;;;;;13.92;80.03;101812.03;5059992;28;20370;-54
2022/10/28 07:15:02;;;;;;;;;;;;;;;13.97;79.97;101823.22;5065243;28;20362;-52
2022/10/28 07:17:27;;;;;;;;;;;;;;;14.01;79.93;101848.56;5066838;28;20025;-52
2022/10/28 07:19:53;;;;;;;;;;;;;;;14.08;79.74;101858.81;5065761;28;19928;-55
2022/10/28 07:22:18;;;;;;;;;;;;;;;14.06;79.54;101861.56;5064912;28;20307;-53
2022/10/28 07:24:43;;;;;;;;;;;;;;;14.06;79.27;101879.22;5065687;28;20467;-55
2022/10/28 07:27:09;;;;;;;;;;;;;;;14.06;79.26;101868.63;5067693;28;20374;-53
2022/10/28 07:29:34;;;;;;;;;;;;;;;14.07;79.54;101875.63;5067791;28;19975;-53
2022/10/28 07:31:59;;;;;;;;;;;;;;;14.09;79.56;101881.69;5066739;28;19920;-52
2022/10/28 07:34:25;;;;;;;;;;;;;;;14.12;79.38;101874.44;5065878;28;19974;-52
2022/10/28 07:36:51;;;;;;;;;;;;;;;14.15;79.27;101878.69;5068340;28;20038;-54
2022/10/28 07:39:17;;;;;;;;;;;;;;;14.18;79.53;101894.41;5062840;28;21540;-53
2022/10/28 07:41:42;;;;;;;;;;;;;;;14.20;79.45;101887.25;5070632;28;20554;-54
2022/10/28 07:44:07;;;;;;;;;;;;;;;14.24;79.28;101887.94;5063449;28;19991;-54
2022/10/28 07:46:33;;;;;;;;;;;;;;;14.27;79.44;101888.63;5066523;28;19924;-55
2022/10/28 07:48:58;;;;;;;;;;;;;;;14.28;79.44;101890.34;5068868;28;19917;-52
2022/10/28 07:51:23;;;;;;;;;;;;;;;14.32;79.39;101885.72;5069419;28;19935;-53
2022/10/28 07:53:49;;;;;;;;;;;;;;;14.36;79.44;101881.13;5057473;28;20337;-55
2022/10/28 07:56:14;;;;;;;;;;;;;;;14.37;79.20;101893.41;5066146;28;20365;-55
2022/10/28 07:58:40;;;;;;;;;;;;;;;14.37;79.28;101896.91;5062722;28;19931;-56
2022/10/28 08:01:07;;;;;;;;;;;;;;;14.40;79.08;101885.31;5067065;28;19931;-53
2022/10/28 08:03:32;;;;;;;;;;;;;;;14.40;79.11;101894.09;5064833;28;19921;-55
2022/10/28 08:05:59;;;;;;;;;;;;;;;14.44;79.18;101897.44;5067104;28;19924;-53
2022/10/28 08:08:24;;;;;;;;;;;;;;;14.47;79.06;101902.53;5063018;28;19921;-52
2022/10/28 08:10:49;;;;;;;;;;;;;;;14.51;78.96;101917.34;5063295;28;19965;-53
2022/10/28 08:13:14;;;;;;;;;;;;;;;14.60;79.03;101921.25;5065539;28;19932;-52
2022/10/28 08:15:40;;;;;;;;;;;;;;;14.68;78.93;101929.66;5067720;28;19928;-53
2022/10/28 08:18:05;;;;;;;;;;;;;;;14.75;78.74;101946.91;5063708;28;19933;-55
2022/10/28 08:20:30;;;;;;;;;;;;;;;14.85;78.62;101962.28;5069036;28;19956;-52
2022/10/28 08:22:57;;;;;;;;;;;;;;;14.90;78.18;101952.28;5071749;28;19932;-55
2022/10/28 08:25:22;;;;;;;;;;;;;;;14.98;78.07;101973.06;5065911;28;20380;-54
2022/10/28 08:27:47;;;;;;;;;;;;;;;14.99;77.46;101978.25;5064699;28;19959;-53
2022/10/28 08:30:12;;;;;;;;;;;;;;;15.00;77.25;101965.88;5067152;28;19925;-53
2022/10/28 08:32:38;;;;;;;;;;;;;;;15.05;77.29;101969.13;5068569;28;19917;-55
2022/10/28 08:35:03;;;;;;;;;;;;;;;15.07;77.00;101968.09;5063486;28;20388;-53
2022/10/28 08:37:29;;;;;;;;;;;;;;;15.09;76.78;101966.22;5065559;28;19920;-52
2022/10/28 08:39:54;;;;;;;;;;;;;;;15.11;76.85;101968.75;5069063;28;19925;-54
2022/10/28 08:42:37;;;;;;;;;;;;;;;15.11;76.84;101966.13;5071151;28;20015;-53
2022/10/28 08:45:12;;;;;;;;;;;;;;;15.09;76.80;101936.19;5064453;28;19928;-55
2022/10/28 08:47:43;;;;;;;;;;;;;;;15.09;77.03;101917.63;5061604;28;19917;-53
2022/10/28 08:50:11;;;;;;;;;;;;;;;15.13;77.17;101915.66;5068103;28;19978;-54
2022/10/28 08:52:39;;;;;;;;;;;;;;;15.19;77.32;101902.91;5066022;28;20339;-53
2022/10/28 08:55:13;;;;;;;;;;;;;;;15.26;77.09;101897.22;5064465;28;19924;-54
2022/10/28 08:57:42;;;;;;;;;;;;;;;15.34;77.19;101881.72;5064092;28;19936;-53
2022/10/28 09:00:08;;;;;;;;;;;;;;;15.41;76.97;101868.97;5063891;28;19927;-54
2022/10/28 09:02:51;;;;;;;;;;;;;;;15.46;77.08;101849.16;5062444;28;19929;-56
2022/10/28 09:05:21;;;;;;;;;;;;;;;15.48;76.63;101834.00;5062415;28;19924;-54
2022/10/28 09:07:46;;;;;;;;;;;;;;;15.49;76.79;101841.03;5065478;28;19929;-54
2022/10/28 09:10:15;;;;;;;;;;;;;;;15.47;76.76;101824.34;5066338;28;19925;-52
2022/10/28 09:12:41;;;;;;;;;;;;;;;15.48;76.88;101807.50;5065160;28;20370;-53
2022/10/28 09:15:12;;;;;;;;;;;;;;;15.49;77.11;101772.06;5063800;28;19921;-52
2022/10/28 09:17:43;;;;;;;;;;;;;;;15.50;77.24;101746.38;5067366;28;20001;-53
2022/10/28 09:20:11;;;;;;;;;;;;;;;15.51;77.27;101748.91;5063730;28;19924;-52
2022/10/28 09:22:55;;;;;;;;;;;;;;;15.53;77.20;101740.88;5063382;28;19928;-56
2022/10/28 09:25:23;;;;;;;;;;;;;;;15.57;77.27;101768.94;5065756;28;20028;-54
2022/10/28 09:28:05;;;;;;;;;;;;;;;15.62;77.23;101768.63;5064569;28;19929;-55
2022/10/28 09:30:49;;;;;;;;;;;;;;;15.66;77.14;101809.91;5061774;28;19936;-54
2022/10/28 09:33:27;;;;;;;;;;;;;;;15.70;77.37;101800.81;5059839;28;19920;-54
2022/10/28 09:35:55;;;;;;;;;;;;;;;15.73;77.41;101800.66;5059884;28;19916;-52
2022/10/28 09:38:34;;;;;;;;;;;;;;;15.77;77.55;101834.00;5071875;22;19916;-61
2022/10/28 09:41:12;;;;;;;;;;;;;;;15.82;77.56;101839.03;5065703;28;20346;-56
2022/10/28 09:43:42;;;;;;;;;;;;;;;15.89;77.47;101832.38;5067739;28;20383;-56
2022/10/28 09:46:11;;;;;;;;;;;;;;;15.96;77.32;101832.84;5062894;28;19920;-56
2022/10/28 09:48:38;;;;;;;;;;;;;;;16.02;77.05;101835.13;5065371;28;19923;-56
2022/10/28 09:51:03;;;;;;;;;;;;;;;16.06;77.03;101827.81;5066961;28;19971;-58
2022/10/28 09:53:50;;;;;;;;;;;;;;;16.06;76.54;101828.69;5064310;28;20009;-55
2022/10/28 09:56:16;;;;;;;;;;;;;;;16.07;76.16;101837.50;5062094;28;20305;-58
2022/10/28 09:58:44;;;;;;;;;;;;;;;16.06;75.91;101859.69;5069109;28;19924;-58
2022/10/28 10:01:10;;;;;;;;;;;;;;;16.05;75.99;101850.00;5067377;28;19916;-57
2022/10/28 10:03:38;;;;;;;;;;;;;;;16.03;75.97;101855.41;5067578;28;19923;-58
2022/10/28 10:06:11;;;;;;;;;;;;;;;16.05;76.27;101852.66;5065965;28;20421;-55
2022/10/28 10:08:37;;;;;;;;;;;;;;;16.06;75.78;101843.75;5065770;28;19917;-56
2022/10/28 10:11:04;;;;;;;;;;;;;;;16.08;76.11;101837.41;5068396;28;19936;-56
2022/10/28 10:13:33;;;;;;;;;;;;;;;16.11;76.03;101831.88;5063786;28;19916;-58
2022/10/28 10:16:01;;;;;;;;;;;;;;;16.15;76.06;101829.91;5059131;28;19924;-56
2022/10/28 10:18:34;;;;;;;;;;;;;;;16.17;75.93;101830.66;5066078;28;19920;-55
2022/10/28 10:20:59;;;;;;;;;;;;;;;16.19;75.96;101833.22;5066797;28;19999;-55
2022/10/28 10:23:28;;;;;;;;;;;;;;;16.19;76.08;101836.69;5072152;28;20026;-56
2022/10/28 10:26:03;;;;;;;;;;;;;;;16.17;75.88;101843.06;5069606;28;20003;-60
2022/10/28 10:28:29;;;;;;;;;;;;;;;16.18;76.00;101850.09;5059181;28;19916;-58
2022/10/28 10:30:58;;;;;;;;;;;;;;;16.18;75.94;101843.00;5066183;28;19927;-56
2022/10/28 10:33:27;;;;;;;;;;;;;;;16.22;76.05;101843.63;5061571;28;19916;-58
2022/10/28 10:35:57;;;;;;;;;;;;;;;16.25;76.07;101843.44;5069671;28;20380;-58
2022/10/28 10:38:22;;;;;;;;;;;;;;;16.28;75.89;101832.59;5064558;28;19962;-58
2022/10/28 10:40:49;;;;;;;;;;;;;;;16.33;75.82;101840.28;5063926;28;19969;-57
2022/10/28 10:43:18;;;;;;;;;;;;;;;16.36;75.94;101843.59;5066676;28;19924;-56
2022/10/28 10:46:09;;;;;;;;;;;;;;;16.41;75.84;101854.75;5061030;28;20065;-57
2022/10/28 10:48:35;;;;;;;;;;;;;;;16.48;75.78;101847.28;5062696;28;19950;-57
2022/10/28 10:51:04;;;;;;;;;;;;;;;16.60;75.69;101845.59;5061502;28;19984;-56
2022/10/28 10:53:30;;;;;;;;;;;;;;;16.74;75.24;101834.06;5064867;28;20007;-57
2022/10/28 10:55:57;;;;;;;;;;;;;;;16.88;75.10;101830.47;5066860;28;19923;-56
2022/10/28 10:58:25;;;;;;;;;;;;;;;17.02;74.84;101829.56;5061620;28;19920;-56
2022/10/28 11:00:52;;;;;;;;;;;;;;;17.15;74.51;101821.63;5062487;28;20012;-57
2022/10/28 11:03:23;;;;;;;;;;;;;;;17.26;74.09;101813.75;5069064;28;19912;-56
2022/10/28 11:05:50;;;;;;;;;;;;;;;17.33;73.84;101812.34;5068304;28;19928;-56
2022/10/28 11:08:25;;;;;;;;;;;;;;;17.41;73.81;101818.94;5065331;28;19916;-56
2022/10/28 11:11:02;;;;;;;;;;;;;;;17.43;73.59;101811.72;5070597;28;19939;-57
2022/10/28 11:13:28;;;;;;;;;;;;;;;17.46;73.75;101814.16;5068448;28;20458;-56
2022/10/28 11:16:05;;;;;;;;;;;;;;;17.46;73.98;101815.00;5061101;28;19913;-57
2022/10/28 11:18:41;;;;;;;;;;;;;;;17.49;74.22;101808.59;5066211;28;20015;-57
2022/10/28 11:21:12;;;;;;;;;;;;;;;17.49;73.97;101801.50;5067839;28;19913;-57
2022/10/28 11:23:38;;;;;;;;;;;;;;;17.55;74.20;101794.88;5067165;28;19924;-56
2022/10/28 11:26:06;;;;;;;;;;;;;;;17.59;74.26;101793.72;5058671;28;19974;-56
2022/10/28 11:28:50;;;;;;;;;;;;;;;17.68;74.18;101779.75;5064178;28;19931;-57
2022/10/28 11:31:34;;;;;;;;;;;;;;;17.78;74.17;101776.41;5066990;28;20595;-57
2022/10/28 11:34:12;;;;;;;;;;;;;;;17.86;73.88;101774.06;5062276;28;21232;-58
2022/10/28 11:36:53;;;;;;;;;;;;;;;17.94;73.62;101771.69;5058049;28;19927;-56
2022/10/28 11:39:29;;;;;;;;;;;;;;;18.02;73.35;101775.63;5063079;28;20038;-56
2022/10/28 11:42:06;;;;;;;;;;;;;;;18.07;72.89;101768.19;5061303;28;19923;-57
2022/10/28 11:44:45;;;;;;;;;;;;;;;18.13;73.25;101762.38;5066279;28;20059;-57
2022/10/28 11:47:10;;;;;;;;;;;;;;;18.20;72.74;101766.31;5061496;28;19966;-55
2022/10/28 11:49:42;;;;;;;;;;;;;;;18.25;72.56;101753.47;5066661;28;19916;-55
2022/10/28 11:52:07;;;;;;;;;;;;;;;18.31;72.55;101748.66;5062387;28;19927;-57
2022/10/28 11:54:43;;;;;;;;;;;;;;;18.32;72.80;101742.38;5062887;28;19921;-54
2022/10/28 11:57:09;;;;;;;;;;;;;;;18.34;72.74;101735.13;5064127;28;19977;-55
2022/10/28 11:59:53;;;;;;;;;;;;;;;18.33;72.74;101734.25;5066044;28;19916;-56
2022/10/28 12:02:30;;;;;;;;;;;;;;;18.33;72.76;101734.25;5064059;28;20380;-58
2022/10/28 12:04:55;;;;;;;;;;;;;;;18.34;73.13;101735.13;5064781;28;19912;-56
2022/10/28 12:07:21;;;;;;;;;;;;;;;18.34;73.14;101729.78;5064803;28;19923;-55
2022/10/28 12:10:06;;;;;;;;;;;;;;;18.33;72.87;101733.41;5069663;28;19922;-55
2022/10/28 12:12:49;;;;;;;;;;;;;;;18.35;72.94;101736.81;5050489;28;20013;-55
2022/10/28 12:15:33;;;;;;;;;;;;;;;18.37;73.24;101734.88;5049030;28;19916;-55
2022/10/28 12:18:01;;;;;;;;;;;;;;;18.39;73.18;101743.59;5066273;28;19924;-61
2022/10/28 12:20:33;;;;;;;;;;;;;;;18.42;72.91;101738.03;5067053;28;19923;-56
2022/10/28 12:23:01;;;;;;;;;;;;;;;18.46;72.77;101738.66;5069566;28;19920;-57
2022/10/28 12:25:28;;;;;;;;;;;;;;;18.49;72.98;101733.97;5070584;28;19955;-56
2022/10/28 12:27:59;;;;;;;;;;;;;;;18.56;72.42;101735.16;5068092;28;19942;-56
2022/10/28 12:30:31;;;;;;;;;;;;;;;18.61;72.68;101732.16;5066447;28;19951;-56
2022/10/28 12:33:00;;;;;;;;;;;;;;;18.67;72.42;101737.03;5065589;28;20007;-55
2022/10/28 12:35:37;;;;;;;;;;;;;;;18.73;72.15;101730.38;5065283;28;19924;-57
2022/10/28 12:38:10;;;;;;;;;;;;;;;18.78;71.72;101730.88;5072289;28;20363;-58
2022/10/28 12:40:48;;;;;;;;;;;;;;;18.84;71.66;101717.06;5066193;28;20087;-56